sensor_id;sensor_type;location;lat;lon;timestamp;P1;durP1;ratioP1;P2;durP2;ratioP2
57303;SDS011;43150;50.986;18.208;2024-01-16T00:00:46;2.90;;;2.10;;
57303;SDS011;43150;50.986;18.208;2024-01-16T00:03:12;5.20;;;2.10;;
57303;SDS011;43150;50.986;18.208;2024-01-16T00:05:38;3.10;;;2.20;;
57303;SDS011;43150;50.986;18.208;2024-01-16T00:08:03;6.70;;;1.90;;
57303;SDS011;43150;50.986;18.208;2024-01-16T00:10:29;7.80;;;1.80;;
57303;SDS011;43150;50.986;18.208;2024-01-16T00:12:54;4.90;;;1.60;;
57303;SDS011;43150;50.986;18.208;2024-01-16T00:15:20;5.00;;;1.30;;
57303;SDS011;43150;50.986;18.208;2024-01-16T00:17:45;2.60;;;1.40;;
57303;SDS011;43150;50.986;18.208;2024-01-16T00:20:11;6.70;;;2.30;;
57303;SDS011;43150;50.986;18.208;2024-01-16T00:22:36;2.90;;;1.70;;
57303;SDS011;43150;50.986;18.208;2024-01-16T00:25:02;6.90;;;2.00;;
57303;SDS011;43150;50.986;18.208;2024-01-16T00:27:28;3.60;;;1.90;;
57303;SDS011;43150;50.986;18.208;2024-01-16T00:29:53;3.80;;;1.60;;
57303;SDS011;43150;50.986;18.208;2024-01-16T00:32:19;8.50;;;1.80;;
57303;SDS011;43150;50.986;18.208;2024-01-16T00:34:47;3.50;;;1.70;;
57303;SDS011;43150;50.986;18.208;2024-01-16T00:37:13;2.80;;;1.20;;
57303;SDS011;43150;50.986;18.208;2024-01-16T00:39:38;2.90;;;1.90;;
57303;SDS011;43150;50.986;18.208;2024-01-16T00:42:04;2.50;;;1.40;;
57303;SDS011;43150;50.986;18.208;2024-01-16T00:44:31;2.60;;;1.50;;
57303;SDS011;43150;50.986;18.208;2024-01-16T00:46:56;6.50;;;1.60;;
57303;SDS011;43150;50.986;18.208;2024-01-16T00:49:22;2.60;;;1.40;;
57303;SDS011;43150;50.986;18.208;2024-01-16T00:51:47;5.30;;;1.80;;
57303;SDS011;43150;50.986;18.208;2024-01-16T00:54:13;4.90;;;1.30;;
57303;SDS011;43150;50.986;18.208;2024-01-16T00:56:41;5.80;;;1.60;;
57303;SDS011;43150;50.986;18.208;2024-01-16T00:59:06;7.60;;;3.30;;
57303;SDS011;43150;50.986;18.208;2024-01-16T01:01:32;7.50;;;3.60;;
57303;SDS011;43150;50.986;18.208;2024-01-16T01:03:58;4.00;;;2.00;;
57303;SDS011;43150;50.986;18.208;2024-01-16T01:06:23;4.40;;;2.20;;
57303;SDS011;43150;50.986;18.208;2024-01-16T01:08:49;4.80;;;1.70;;
57303;SDS011;43150;50.986;18.208;2024-01-16T01:11:14;3.70;;;1.50;;
57303;SDS011;43150;50.986;18.208;2024-01-16T01:13:40;4.10;;;1.70;;
57303;SDS011;43150;50.986;18.208;2024-01-16T01:16:05;4.90;;;1.80;;
57303;SDS011;43150;50.986;18.208;2024-01-16T01:18:35;5.40;;;1.50;;
57303;SDS011;43150;50.986;18.208;2024-01-16T01:21:00;4.90;;;2.10;;
57303;SDS011;43150;50.986;18.208;2024-01-16T01:23:26;4.00;;;1.70;;
57303;SDS011;43150;50.986;18.208;2024-01-16T01:25:52;2.10;;;0.90;;
57303;SDS011;43150;50.986;18.208;2024-01-16T01:28:17;5.30;;;2.40;;
57303;SDS011;43150;50.986;18.208;2024-01-16T01:30:43;2.60;;;1.20;;
57303;SDS011;43150;50.986;18.208;2024-01-16T01:33:08;5.20;;;1.80;;
57303;SDS011;43150;50.986;18.208;2024-01-16T01:35:33;3.20;;;1.10;;
57303;SDS011;43150;50.986;18.208;2024-01-16T01:37:59;3.30;;;1.40;;
57303;SDS011;43150;50.986;18.208;2024-01-16T01:40:25;3.40;;;1.80;;
57303;SDS011;43150;50.986;18.208;2024-01-16T01:42:50;1.10;;;0.70;;
57303;SDS011;43150;50.986;18.208;2024-01-16T01:45:16;2.70;;;1.10;;
57303;SDS011;43150;50.986;18.208;2024-01-16T01:47:41;2.80;;;1.50;;
57303;SDS011;43150;50.986;18.208;2024-01-16T01:50:09;4.60;;;1.80;;
57303;SDS011;43150;50.986;18.208;2024-01-16T01:52:36;8.90;;;1.90;;
57303;SDS011;43150;50.986;18.208;2024-01-16T01:55:02;4.10;;;1.30;;
57303;SDS011;43150;50.986;18.208;2024-01-16T01:57:28;6.10;;;2.00;;
57303;SDS011;43150;50.986;18.208;2024-01-16T01:59:54;7.70;;;3.00;;
57303;SDS011;43150;50.986;18.208;2024-01-16T02:02:20;4.30;;;1.60;;
57303;SDS011;43150;50.986;18.208;2024-01-16T02:04:46;5.40;;;1.80;;
57303;SDS011;43150;50.986;18.208;2024-01-16T02:07:12;4.40;;;1.90;;
57303;SDS011;43150;50.986;18.208;2024-01-16T02:09:38;2.10;;;0.80;;
57303;SDS011;43150;50.986;18.208;2024-01-16T02:12:04;5.60;;;1.60;;
57303;SDS011;43150;50.986;18.208;2024-01-16T02:14:30;2.40;;;1.40;;
57303;SDS011;43150;50.986;18.208;2024-01-16T02:16:56;5.30;;;2.40;;
57303;SDS011;43150;50.986;18.208;2024-01-16T02:19:21;3.30;;;1.70;;
57303;SDS011;43150;50.986;18.208;2024-01-16T02:21:47;3.70;;;1.20;;
57303;SDS011;43150;50.986;18.208;2024-01-16T02:24:17;2.50;;;1.40;;
57303;SDS011;43150;50.986;18.208;2024-01-16T02:26:43;1.70;;;0.80;;
57303;SDS011;43150;50.986;18.208;2024-01-16T02:29:08;2.90;;;1.80;;
57303;SDS011;43150;50.986;18.208;2024-01-16T02:31:34;2.30;;;1.40;;
57303;SDS011;43150;50.986;18.208;2024-01-16T02:34:00;2.00;;;0.90;;
57303;SDS011;43150;50.986;18.208;2024-01-16T02:36:26;2.70;;;1.30;;
57303;SDS011;43150;50.986;18.208;2024-01-16T02:38:52;5.50;;;2.40;;
57303;SDS011;43150;50.986;18.208;2024-01-16T02:41:18;3.10;;;1.00;;
57303;SDS011;43150;50.986;18.208;2024-01-16T02:43:48;4.80;;;1.30;;
57303;SDS011;43150;50.986;18.208;2024-01-16T02:46:14;1.60;;;0.60;;
57303;SDS011;43150;50.986;18.208;2024-01-16T02:48:40;3.10;;;1.20;;
57303;SDS011;43150;50.986;18.208;2024-01-16T02:51:07;1.30;;;0.70;;
57303;SDS011;43150;50.986;18.208;2024-01-16T02:53:33;1.60;;;0.70;;
57303;SDS011;43150;50.986;18.208;2024-01-16T02:55:59;2.00;;;0.80;;
57303;SDS011;43150;50.986;18.208;2024-01-16T02:58:25;1.50;;;1.00;;
57303;SDS011;43150;50.986;18.208;2024-01-16T03:00:51;1.60;;;1.10;;
57303;SDS011;43150;50.986;18.208;2024-01-16T03:03:16;1.70;;;0.80;;
57303;SDS011;43150;50.986;18.208;2024-01-16T03:05:42;0.80;;;0.80;;
57303;SDS011;43150;50.986;18.208;2024-01-16T03:08:07;1.90;;;0.60;;
57303;SDS011;43150;50.986;18.208;2024-01-16T03:10:33;2.10;;;1.00;;
57303;SDS011;43150;50.986;18.208;2024-01-16T03:12:58;5.00;;;1.80;;
57303;SDS011;43150;50.986;18.208;2024-01-16T03:15:24;2.00;;;0.80;;
57303;SDS011;43150;50.986;18.208;2024-01-16T03:17:50;0.50;;;0.50;;
57303;SDS011;43150;50.986;18.208;2024-01-16T03:20:16;2.30;;;1.00;;
57303;SDS011;43150;50.986;18.208;2024-01-16T03:22:45;0.60;;;0.50;;
57303;SDS011;43150;50.986;18.208;2024-01-16T03:25:10;2.20;;;1.50;;
57303;SDS011;43150;50.986;18.208;2024-01-16T03:27:37;1.90;;;1.30;;
57303;SDS011;43150;50.986;18.208;2024-01-16T03:30:03;2.00;;;1.80;;
57303;SDS011;43150;50.986;18.208;2024-01-16T03:32:29;4.10;;;1.90;;
57303;SDS011;43150;50.986;18.208;2024-01-16T03:34:54;4.20;;;1.40;;
57303;SDS011;43150;50.986;18.208;2024-01-16T03:37:20;4.10;;;1.70;;
57303;SDS011;43150;50.986;18.208;2024-01-16T03:39:45;8.30;;;1.90;;
57303;SDS011;43150;50.986;18.208;2024-01-16T03:42:11;4.20;;;1.80;;
57303;SDS011;43150;50.986;18.208;2024-01-16T03:44:40;2.40;;;1.20;;
57303;SDS011;43150;50.986;18.208;2024-01-16T03:47:06;4.60;;;2.00;;
57303;SDS011;43150;50.986;18.208;2024-01-16T03:49:31;2.90;;;1.80;;
57303;SDS011;43150;50.986;18.208;2024-01-16T03:52:00;3.00;;;2.00;;
57303;SDS011;43150;50.986;18.208;2024-01-16T03:54:25;2.60;;;1.90;;
57303;SDS011;43150;50.986;18.208;2024-01-16T03:56:51;2.50;;;1.40;;
57303;SDS011;43150;50.986;18.208;2024-01-16T03:59:17;2.30;;;1.20;;
57303;SDS011;43150;50.986;18.208;2024-01-16T04:01:42;3.50;;;2.00;;
57303;SDS011;43150;50.986;18.208;2024-01-16T04:04:10;3.90;;;1.90;;
57303;SDS011;43150;50.986;18.208;2024-01-16T04:06:35;6.20;;;2.60;;
57303;SDS011;43150;50.986;18.208;2024-01-16T04:09:01;2.70;;;2.40;;
57303;SDS011;43150;50.986;18.208;2024-01-16T04:11:28;3.30;;;2.00;;
57303;SDS011;43150;50.986;18.208;2024-01-16T04:13:53;4.20;;;1.50;;
57303;SDS011;43150;50.986;18.208;2024-01-16T04:16:19;2.90;;;1.70;;
57303;SDS011;43150;50.986;18.208;2024-01-16T04:18:44;3.10;;;2.00;;
57303;SDS011;43150;50.986;18.208;2024-01-16T04:21:10;3.50;;;1.20;;
57303;SDS011;43150;50.986;18.208;2024-01-16T04:23:36;6.00;;;0.80;;
57303;SDS011;43150;50.986;18.208;2024-01-16T04:26:02;2.70;;;0.80;;
57303;SDS011;43150;50.986;18.208;2024-01-16T04:28:27;1.00;;;0.40;;
57303;SDS011;43150;50.986;18.208;2024-01-16T04:30:53;2.30;;;0.90;;
57303;SDS011;43150;50.986;18.208;2024-01-16T04:33:19;1.50;;;1.10;;
57303;SDS011;43150;50.986;18.208;2024-01-16T04:35:45;4.10;;;1.30;;
57303;SDS011;43150;50.986;18.208;2024-01-16T04:38:10;0.90;;;0.70;;
57303;SDS011;43150;50.986;18.208;2024-01-16T04:40:36;2.20;;;1.20;;
57303;SDS011;43150;50.986;18.208;2024-01-16T04:43:01;1.90;;;0.80;;
57303;SDS011;43150;50.986;18.208;2024-01-16T04:45:28;4.00;;;1.30;;
57303;SDS011;43150;50.986;18.208;2024-01-16T04:47:53;2.80;;;1.50;;
57303;SDS011;43150;50.986;18.208;2024-01-16T04:50:19;4.20;;;1.60;;
57303;SDS011;43150;50.986;18.208;2024-01-16T04:52:44;9.70;;;1.90;;
57303;SDS011;43150;50.986;18.208;2024-01-16T04:55:10;2.30;;;1.10;;
57303;SDS011;43150;50.986;18.208;2024-01-16T04:57:36;4.80;;;2.70;;
57303;SDS011;43150;50.986;18.208;2024-01-16T05:00:02;6.00;;;2.80;;
57303;SDS011;43150;50.986;18.208;2024-01-16T05:02:32;7.40;;;2.10;;
57303;SDS011;43150;50.986;18.208;2024-01-16T05:04:58;5.30;;;3.00;;
57303;SDS011;43150;50.986;18.208;2024-01-16T05:07:24;6.10;;;1.70;;
57303;SDS011;43150;50.986;18.208;2024-01-16T05:09:50;2.90;;;1.30;;
57303;SDS011;43150;50.986;18.208;2024-01-16T05:12:16;3.30;;;1.90;;
57303;SDS011;43150;50.986;18.208;2024-01-16T05:14:42;1.00;;;0.90;;
57303;SDS011;43150;50.986;18.208;2024-01-16T05:17:07;2.40;;;1.00;;
57303;SDS011;43150;50.986;18.208;2024-01-16T05:19:33;6.80;;;1.20;;
57303;SDS011;43150;50.986;18.208;2024-01-16T05:21:59;1.10;;;1.00;;
57303;SDS011;43150;50.986;18.208;2024-01-16T05:24:25;1.30;;;0.80;;
57303;SDS011;43150;50.986;18.208;2024-01-16T05:26:50;5.20;;;1.50;;
57303;SDS011;43150;50.986;18.208;2024-01-16T05:29:16;2.60;;;1.10;;
57303;SDS011;43150;50.986;18.208;2024-01-16T05:31:42;3.10;;;1.20;;
57303;SDS011;43150;50.986;18.208;2024-01-16T05:34:10;2.90;;;1.20;;
57303;SDS011;43150;50.986;18.208;2024-01-16T05:36:36;3.80;;;1.50;;
57303;SDS011;43150;50.986;18.208;2024-01-16T05:39:02;5.30;;;1.40;;
57303;SDS011;43150;50.986;18.208;2024-01-16T05:41:32;2.20;;;1.10;;
57303;SDS011;43150;50.986;18.208;2024-01-16T05:43:58;5.20;;;1.20;;
57303;SDS011;43150;50.986;18.208;2024-01-16T05:46:24;1.60;;;1.20;;
57303;SDS011;43150;50.986;18.208;2024-01-16T05:48:49;2.40;;;1.30;;
57303;SDS011;43150;50.986;18.208;2024-01-16T05:51:14;2.00;;;1.40;;
57303;SDS011;43150;50.986;18.208;2024-01-16T05:53:41;3.20;;;2.10;;
57303;SDS011;43150;50.986;18.208;2024-01-16T05:56:06;1.50;;;1.00;;
57303;SDS011;43150;50.986;18.208;2024-01-16T05:58:33;5.00;;;1.50;;
57303;SDS011;43150;50.986;18.208;2024-01-16T06:01:04;6.90;;;2.10;;
57303;SDS011;43150;50.986;18.208;2024-01-16T06:03:30;2.70;;;1.80;;
57303;SDS011;43150;50.986;18.208;2024-01-16T06:05:55;2.60;;;1.60;;
57303;SDS011;43150;50.986;18.208;2024-01-16T06:08:21;3.70;;;1.90;;
57303;SDS011;43150;50.986;18.208;2024-01-16T06:10:46;2.60;;;1.50;;
57303;SDS011;43150;50.986;18.208;2024-01-16T06:13:12;4.10;;;2.10;;
57303;SDS011;43150;50.986;18.208;2024-01-16T06:15:37;3.40;;;2.00;;
57303;SDS011;43150;50.986;18.208;2024-01-16T06:18:03;3.60;;;1.40;;
57303;SDS011;43150;50.986;18.208;2024-01-16T06:20:28;4.40;;;1.80;;
57303;SDS011;43150;50.986;18.208;2024-01-16T06:22:54;2.50;;;1.30;;
57303;SDS011;43150;50.986;18.208;2024-01-16T06:25:19;4.10;;;1.80;;
57303;SDS011;43150;50.986;18.208;2024-01-16T06:27:45;5.30;;;3.60;;
57303;SDS011;43150;50.986;18.208;2024-01-16T06:30:11;2.50;;;1.40;;
57303;SDS011;43150;50.986;18.208;2024-01-16T06:32:36;3.30;;;2.00;;
57303;SDS011;43150;50.986;18.208;2024-01-16T06:35:02;4.80;;;3.40;;
57303;SDS011;43150;50.986;18.208;2024-01-16T06:37:28;5.40;;;1.60;;
57303;SDS011;43150;50.986;18.208;2024-01-16T06:39:54;3.20;;;1.90;;
57303;SDS011;43150;50.986;18.208;2024-01-16T06:42:19;5.50;;;2.70;;
57303;SDS011;43150;50.986;18.208;2024-01-16T06:44:45;3.80;;;2.00;;
57303;SDS011;43150;50.986;18.208;2024-01-16T06:47:10;3.70;;;1.90;;
57303;SDS011;43150;50.986;18.208;2024-01-16T06:49:36;4.20;;;2.10;;
57303;SDS011;43150;50.986;18.208;2024-01-16T06:52:01;6.40;;;1.60;;
57303;SDS011;43150;50.986;18.208;2024-01-16T06:54:26;3.80;;;1.90;;
57303;SDS011;43150;50.986;18.208;2024-01-16T06:56:52;5.20;;;2.10;;
57303;SDS011;43150;50.986;18.208;2024-01-16T06:59:18;6.00;;;2.50;;
57303;SDS011;43150;50.986;18.208;2024-01-16T07:01:44;7.70;;;2.40;;
57303;SDS011;43150;50.986;18.208;2024-01-16T07:04:10;6.70;;;2.70;;
57303;SDS011;43150;50.986;18.208;2024-01-16T07:06:36;4.90;;;2.50;;
57303;SDS011;43150;50.986;18.208;2024-01-16T07:09:01;2.10;;;1.20;;
57303;SDS011;43150;50.986;18.208;2024-01-16T07:11:30;2.50;;;1.30;;
57303;SDS011;43150;50.986;18.208;2024-01-16T07:13:56;4.60;;;1.10;;
57303;SDS011;43150;50.986;18.208;2024-01-16T07:16:22;2.40;;;1.80;;
57303;SDS011;43150;50.986;18.208;2024-01-16T07:18:47;4.90;;;1.20;;
57303;SDS011;43150;50.986;18.208;2024-01-16T07:21:19;4.50;;;1.10;;
57303;SDS011;43150;50.986;18.208;2024-01-16T07:23:46;3.20;;;1.20;;
57303;SDS011;43150;50.986;18.208;2024-01-16T07:26:12;1.30;;;0.80;;
57303;SDS011;43150;50.986;18.208;2024-01-16T07:28:37;2.60;;;1.00;;
57303;SDS011;43150;50.986;18.208;2024-01-16T07:31:03;2.20;;;0.80;;
57303;SDS011;43150;50.986;18.208;2024-01-16T07:33:28;1.00;;;0.60;;
57303;SDS011;43150;50.986;18.208;2024-01-16T07:35:54;2.40;;;0.80;;
57303;SDS011;43150;50.986;18.208;2024-01-16T07:38:20;0.90;;;0.80;;
57303;SDS011;43150;50.986;18.208;2024-01-16T07:40:46;3.00;;;1.20;;
57303;SDS011;43150;50.986;18.208;2024-01-16T07:43:11;2.60;;;1.00;;
57303;SDS011;43150;50.986;18.208;2024-01-16T07:45:37;5.00;;;1.30;;
57303;SDS011;43150;50.986;18.208;2024-01-16T07:48:03;2.80;;;1.60;;
57303;SDS011;43150;50.986;18.208;2024-01-16T07:50:29;3.00;;;1.50;;
57303;SDS011;43150;50.986;18.208;2024-01-16T07:52:55;12.20;;;7.10;;
57303;SDS011;43150;50.986;18.208;2024-01-16T07:55:21;8.30;;;5.70;;
57303;SDS011;43150;50.986;18.208;2024-01-16T07:57:46;7.70;;;4.80;;
57303;SDS011;43150;50.986;18.208;2024-01-16T08:00:12;6.00;;;3.70;;
57303;SDS011;43150;50.986;18.208;2024-01-16T08:02:37;10.30;;;4.50;;
57303;SDS011;43150;50.986;18.208;2024-01-16T08:05:03;12.40;;;6.50;;
57303;SDS011;43150;50.986;18.208;2024-01-16T08:07:29;11.40;;;4.00;;
57303;SDS011;43150;50.986;18.208;2024-01-16T08:09:55;9.60;;;3.30;;
57303;SDS011;43150;50.986;18.208;2024-01-16T08:12:20;6.80;;;3.60;;
57303;SDS011;43150;50.986;18.208;2024-01-16T08:14:45;8.10;;;3.90;;
57303;SDS011;43150;50.986;18.208;2024-01-16T08:17:11;27.30;;;17.10;;
57303;SDS011;43150;50.986;18.208;2024-01-16T08:19:37;15.20;;;7.40;;
57303;SDS011;43150;50.986;18.208;2024-01-16T08:22:02;11.60;;;5.00;;
57303;SDS011;43150;50.986;18.208;2024-01-16T08:24:28;5.30;;;3.40;;
57303;SDS011;43150;50.986;18.208;2024-01-16T08:26:54;6.10;;;3.50;;
57303;SDS011;43150;50.986;18.208;2024-01-16T08:29:22;6.10;;;3.20;;
57303;SDS011;43150;50.986;18.208;2024-01-16T08:31:48;11.30;;;4.30;;
57303;SDS011;43150;50.986;18.208;2024-01-16T08:34:14;12.40;;;4.40;;
57303;SDS011;43150;50.986;18.208;2024-01-16T08:36:40;8.20;;;4.40;;
57303;SDS011;43150;50.986;18.208;2024-01-16T08:39:05;11.20;;;5.10;;
57303;SDS011;43150;50.986;18.208;2024-01-16T08:41:31;9.60;;;4.70;;
57303;SDS011;43150;50.986;18.208;2024-01-16T08:43:56;5.40;;;3.30;;
57303;SDS011;43150;50.986;18.208;2024-01-16T08:46:22;5.30;;;3.20;;
57303;SDS011;43150;50.986;18.208;2024-01-16T08:48:48;8.80;;;4.90;;
57303;SDS011;43150;50.986;18.208;2024-01-16T08:51:13;10.30;;;5.50;;
57303;SDS011;43150;50.986;18.208;2024-01-16T08:53:40;14.40;;;7.30;;
57303;SDS011;43150;50.986;18.208;2024-01-16T08:56:08;19.00;;;7.20;;
57303;SDS011;43150;50.986;18.208;2024-01-16T08:58:34;14.30;;;7.70;;
57303;SDS011;43150;50.986;18.208;2024-01-16T09:01:04;13.50;;;6.60;;
57303;SDS011;43150;50.986;18.208;2024-01-16T09:03:31;10.40;;;5.40;;
57303;SDS011;43150;50.986;18.208;2024-01-16T09:05:57;8.90;;;5.50;;
57303;SDS011;43150;50.986;18.208;2024-01-16T09:08:22;12.40;;;7.50;;
57303;SDS011;43150;50.986;18.208;2024-01-16T09:10:54;9.90;;;4.80;;
57303;SDS011;43150;50.986;18.208;2024-01-16T09:13:20;9.10;;;4.40;;
57303;SDS011;43150;50.986;18.208;2024-01-16T09:15:49;10.60;;;5.30;;
57303;SDS011;43150;50.986;18.208;2024-01-16T09:18:15;12.20;;;5.30;;
57303;SDS011;43150;50.986;18.208;2024-01-16T09:20:41;15.60;;;8.10;;
57303;SDS011;43150;50.986;18.208;2024-01-16T09:23:07;13.60;;;8.00;;
57303;SDS011;43150;50.986;18.208;2024-01-16T09:25:36;14.50;;;8.60;;
57303;SDS011;43150;50.986;18.208;2024-01-16T09:28:02;16.60;;;7.80;;
57303;SDS011;43150;50.986;18.208;2024-01-16T09:30:27;17.00;;;8.80;;
57303;SDS011;43150;50.986;18.208;2024-01-16T09:32:52;10.80;;;5.70;;
57303;SDS011;43150;50.986;18.208;2024-01-16T09:35:18;16.60;;;11.80;;
57303;SDS011;43150;50.986;18.208;2024-01-16T09:37:44;16.30;;;12.20;;
57303;SDS011;43150;50.986;18.208;2024-01-16T09:40:10;15.30;;;11.50;;
57303;SDS011;43150;50.986;18.208;2024-01-16T09:42:36;15.70;;;13.50;;
57303;SDS011;43150;50.986;18.208;2024-01-16T09:45:01;14.50;;;10.40;;
57303;SDS011;43150;50.986;18.208;2024-01-16T09:47:31;10.50;;;8.10;;
57303;SDS011;43150;50.986;18.208;2024-01-16T09:49:57;7.90;;;5.10;;
57303;SDS011;43150;50.986;18.208;2024-01-16T09:52:24;8.30;;;4.40;;
57303;SDS011;43150;50.986;18.208;2024-01-16T09:54:50;12.00;;;9.40;;
57303;SDS011;43150;50.986;18.208;2024-01-16T09:57:16;6.70;;;4.50;;
57303;SDS011;43150;50.986;18.208;2024-01-16T09:59:44;3.70;;;2.60;;
57303;SDS011;43150;50.986;18.208;2024-01-16T10:02:10;4.10;;;2.40;;
57303;SDS011;43150;50.986;18.208;2024-01-16T10:04:38;4.40;;;3.10;;
57303;SDS011;43150;50.986;18.208;2024-01-16T10:07:03;7.90;;;5.00;;
57303;SDS011;43150;50.986;18.208;2024-01-16T10:09:29;11.20;;;6.30;;
57303;SDS011;43150;50.986;18.208;2024-01-16T10:11:55;10.50;;;8.50;;
57303;SDS011;43150;50.986;18.208;2024-01-16T10:14:21;8.30;;;5.20;;
57303;SDS011;43150;50.986;18.208;2024-01-16T10:16:59;6.90;;;4.70;;
57303;SDS011;43150;50.986;18.208;2024-01-16T10:19:28;6.50;;;4.20;;
57303;SDS011;43150;50.986;18.208;2024-01-16T10:22:04;5.50;;;3.90;;
57303;SDS011;43150;50.986;18.208;2024-01-16T10:24:30;8.30;;;6.00;;
57303;SDS011;43150;50.986;18.208;2024-01-16T10:27:00;3.70;;;3.20;;
57303;SDS011;43150;50.986;18.208;2024-01-16T10:29:26;5.90;;;4.00;;
57303;SDS011;43150;50.986;18.208;2024-01-16T10:31:52;5.80;;;4.70;;
57303;SDS011;43150;50.986;18.208;2024-01-16T10:34:24;7.30;;;5.10;;
57303;SDS011;43150;50.986;18.208;2024-01-16T10:36:50;7.60;;;5.20;;
57303;SDS011;43150;50.986;18.208;2024-01-16T10:39:16;7.80;;;6.00;;
57303;SDS011;43150;50.986;18.208;2024-01-16T10:41:41;6.90;;;4.50;;
57303;SDS011;43150;50.986;18.208;2024-01-16T10:44:07;6.80;;;4.40;;
57303;SDS011;43150;50.986;18.208;2024-01-16T10:46:35;5.40;;;4.10;;
57303;SDS011;43150;50.986;18.208;2024-01-16T10:49:01;3.80;;;2.50;;
57303;SDS011;43150;50.986;18.208;2024-01-16T10:51:27;7.10;;;5.10;;
57303;SDS011;43150;50.986;18.208;2024-01-16T10:56:27;4.20;;;2.80;;
57303;SDS011;43150;50.986;18.208;2024-01-16T10:58:57;6.30;;;3.00;;
57303;SDS011;43150;50.986;18.208;2024-01-16T11:01:24;6.50;;;4.80;;
57303;SDS011;43150;50.986;18.208;2024-01-16T11:03:50;6.00;;;4.40;;
57303;SDS011;43150;50.986;18.208;2024-01-16T11:06:22;6.50;;;4.80;;
57303;SDS011;43150;50.986;18.208;2024-01-16T11:08:48;5.50;;;4.40;;
57303;SDS011;43150;50.986;18.208;2024-01-16T11:11:14;5.10;;;4.00;;
57303;SDS011;43150;50.986;18.208;2024-01-16T11:13:40;7.40;;;4.90;;
57303;SDS011;43150;50.986;18.208;2024-01-16T11:16:06;6.70;;;4.60;;
57303;SDS011;43150;50.986;18.208;2024-01-16T11:18:33;7.80;;;5.70;;
57303;SDS011;43150;50.986;18.208;2024-01-16T11:21:00;7.70;;;4.90;;
57303;SDS011;43150;50.986;18.208;2024-01-16T11:23:26;5.10;;;3.00;;
57303;SDS011;43150;50.986;18.208;2024-01-16T11:25:52;5.10;;;2.60;;
57303;SDS011;43150;50.986;18.208;2024-01-16T11:28:17;4.30;;;1.90;;
57303;SDS011;43150;50.986;18.208;2024-01-16T11:30:45;6.30;;;3.70;;
57303;SDS011;43150;50.986;18.208;2024-01-16T11:35:55;8.00;;;4.50;;
57303;SDS011;43150;50.986;18.208;2024-01-16T11:38:20;7.20;;;3.40;;
57303;SDS011;43150;50.986;18.208;2024-01-16T11:40:51;7.30;;;3.20;;
57303;SDS011;43150;50.986;18.208;2024-01-16T11:46:01;6.60;;;3.50;;
57303;SDS011;43150;50.986;18.208;2024-01-16T11:48:26;6.20;;;2.40;;
57303;SDS011;43150;50.986;18.208;2024-01-16T11:50:52;5.40;;;2.60;;
57303;SDS011;43150;50.986;18.208;2024-01-16T11:53:35;6.30;;;3.60;;
57303;SDS011;43150;50.986;18.208;2024-01-16T11:58:45;7.30;;;3.10;;
57303;SDS011;43150;50.986;18.208;2024-01-16T12:01:13;6.40;;;3.20;;
57303;SDS011;43150;50.986;18.208;2024-01-16T12:03:39;6.00;;;2.80;;
57303;SDS011;43150;50.986;18.208;2024-01-16T12:06:08;11.70;;;3.40;;
57303;SDS011;43150;50.986;18.208;2024-01-16T12:08:34;5.70;;;3.20;;
57303;SDS011;43150;50.986;18.208;2024-01-16T12:11:02;9.10;;;3.20;;
57303;SDS011;43150;50.986;18.208;2024-01-16T12:13:27;6.30;;;3.60;;
57303;SDS011;43150;50.986;18.208;2024-01-16T12:16:02;6.60;;;4.00;;
57303;SDS011;43150;50.986;18.208;2024-01-16T12:18:29;10.40;;;3.10;;
57303;SDS011;43150;50.986;18.208;2024-01-16T12:20:55;5.70;;;3.20;;
57303;SDS011;43150;50.986;18.208;2024-01-16T12:23:21;5.60;;;3.10;;
57303;SDS011;43150;50.986;18.208;2024-01-16T12:25:51;6.50;;;3.00;;
57303;SDS011;43150;50.986;18.208;2024-01-16T12:28:19;6.30;;;2.80;;
57303;SDS011;43150;50.986;18.208;2024-01-16T12:30:48;8.20;;;3.10;;
57303;SDS011;43150;50.986;18.208;2024-01-16T12:33:14;10.50;;;3.80;;
57303;SDS011;43150;50.986;18.208;2024-01-16T12:35:41;6.10;;;3.40;;
57303;SDS011;43150;50.986;18.208;2024-01-16T12:38:08;6.00;;;2.70;;
57303;SDS011;43150;50.986;18.208;2024-01-16T12:40:37;7.10;;;3.00;;
57303;SDS011;43150;50.986;18.208;2024-01-16T12:43:04;7.00;;;3.20;;
57303;SDS011;43150;50.986;18.208;2024-01-16T12:45:30;7.50;;;3.50;;
57303;SDS011;43150;50.986;18.208;2024-01-16T12:47:56;6.90;;;2.90;;
57303;SDS011;43150;50.986;18.208;2024-01-16T12:50:26;5.20;;;2.80;;
57303;SDS011;43150;50.986;18.208;2024-01-16T12:53:05;5.70;;;3.00;;
57303;SDS011;43150;50.986;18.208;2024-01-16T12:55:31;3.50;;;2.20;;
57303;SDS011;43150;50.986;18.208;2024-01-16T12:58:13;4.00;;;2.40;;
57303;SDS011;43150;50.986;18.208;2024-01-16T13:00:39;7.80;;;2.90;;
57303;SDS011;43150;50.986;18.208;2024-01-16T13:03:05;3.60;;;1.30;;
57303;SDS011;43150;50.986;18.208;2024-01-16T13:05:31;4.20;;;2.30;;
57303;SDS011;43150;50.986;18.208;2024-01-16T13:08:03;3.00;;;1.60;;
57303;SDS011;43150;50.986;18.208;2024-01-16T13:10:30;2.80;;;1.50;;
57303;SDS011;43150;50.986;18.208;2024-01-16T13:13:13;4.00;;;1.30;;
57303;SDS011;43150;50.986;18.208;2024-01-16T13:15:39;2.70;;;0.90;;
57303;SDS011;43150;50.986;18.208;2024-01-16T13:18:05;2.30;;;1.10;;
57303;SDS011;43150;50.986;18.208;2024-01-16T13:20:31;4.40;;;2.00;;
57303;SDS011;43150;50.986;18.208;2024-01-16T13:22:56;3.70;;;1.90;;
57303;SDS011;43150;50.986;18.208;2024-01-16T13:25:22;2.80;;;1.40;;
57303;SDS011;43150;50.986;18.208;2024-01-16T13:27:47;6.40;;;1.50;;
57303;SDS011;43150;50.986;18.208;2024-01-16T13:30:13;3.80;;;2.20;;
57303;SDS011;43150;50.986;18.208;2024-01-16T13:32:40;5.00;;;1.90;;
57303;SDS011;43150;50.986;18.208;2024-01-16T13:35:05;3.00;;;1.80;;
57303;SDS011;43150;50.986;18.208;2024-01-16T13:37:33;5.60;;;2.20;;
57303;SDS011;43150;50.986;18.208;2024-01-16T13:40:06;5.50;;;2.70;;
57303;SDS011;43150;50.986;18.208;2024-01-16T13:42:43;4.70;;;1.70;;
57303;SDS011;43150;50.986;18.208;2024-01-16T13:45:09;3.50;;;1.40;;
57303;SDS011;43150;50.986;18.208;2024-01-16T13:47:34;4.60;;;2.10;;
57303;SDS011;43150;50.986;18.208;2024-01-16T13:50:04;3.80;;;2.30;;
57303;SDS011;43150;50.986;18.208;2024-01-16T13:52:30;6.50;;;3.20;;
57303;SDS011;43150;50.986;18.208;2024-01-16T13:54:56;10.60;;;3.40;;
57303;SDS011;43150;50.986;18.208;2024-01-16T13:57:22;10.40;;;3.70;;
57303;SDS011;43150;50.986;18.208;2024-01-16T13:59:48;5.70;;;2.70;;
57303;SDS011;43150;50.986;18.208;2024-01-16T14:02:13;7.70;;;3.20;;
57303;SDS011;43150;50.986;18.208;2024-01-16T14:04:39;6.70;;;3.30;;
57303;SDS011;43150;50.986;18.208;2024-01-16T14:07:05;10.70;;;4.30;;
57303;SDS011;43150;50.986;18.208;2024-01-16T14:09:36;6.50;;;2.70;;
57303;SDS011;43150;50.986;18.208;2024-01-16T14:12:02;17.60;;;5.30;;
57303;SDS011;43150;50.986;18.208;2024-01-16T14:14:28;13.90;;;8.50;;
57303;SDS011;43150;50.986;18.208;2024-01-16T14:16:53;18.50;;;7.40;;
57303;SDS011;43150;50.986;18.208;2024-01-16T14:19:20;14.00;;;5.70;;
57303;SDS011;43150;50.986;18.208;2024-01-16T14:21:45;7.50;;;3.60;;
57303;SDS011;43150;50.986;18.208;2024-01-16T14:24:13;9.60;;;3.50;;
57303;SDS011;43150;50.986;18.208;2024-01-16T14:26:43;7.60;;;3.60;;
57303;SDS011;43150;50.986;18.208;2024-01-16T14:29:11;11.70;;;4.90;;
57303;SDS011;43150;50.986;18.208;2024-01-16T14:31:38;6.40;;;4.30;;
57303;SDS011;43150;50.986;18.208;2024-01-16T14:34:04;12.00;;;5.10;;
57303;SDS011;43150;50.986;18.208;2024-01-16T14:36:29;10.00;;;5.40;;
57303;SDS011;43150;50.986;18.208;2024-01-16T14:38:55;14.80;;;8.00;;